Time;durP1;ratioP1;P1;durP2;ratioP2;P2;SDS_P1;SDS_P2;PMS_P1;PMS_P2;Temp;Humidity;BMP_temperature;BMP_pressure;BME280_temperature;BME280_humidity;BME280_pressure;Samples;Min_cycle;Max_cycle;Signal;HPM_P1;HPM_P2
2020/12/22 00:00:16;;;;;;;;;;;13.60;99.90;;;;;;5038634;28;20049;-94
2020/12/22 00:02:48;;;;;;;28.70;4.00;;;13.60;99.90;;;;;;5049529;28;19920;-93
2020/12/22 00:05:18;;;;;;;30.73;3.42;;;13.60;99.90;;;;;;5039818;28;20075;-94
2020/12/22 00:07:48;;;;;;;35.58;4.25;;;13.50;99.90;;;;;;5035763;28;20041;-94
2020/12/22 00:10:18;;;;;;;28.40;3.95;;;13.60;99.90;;;;;;5038833;28;20053;-94
2020/12/22 00:12:46;;;;;;;30.02;4.75;;;13.60;99.90;;;;;;5023671;28;20061;-95
2020/12/22 00:15:17;;;;;;;28.50;3.67;;;13.60;99.90;;;;;;5037198;28;20064;-94
2020/12/22 00:17:45;;;;;;;34.22;3.78;;;13.60;99.90;;;;;;5037852;28;20352;-94
2020/12/22 00:20:14;;;;;;;34.63;4.47;;;13.60;99.90;;;;;;5033015;28;20167;-94
2020/12/22 00:22:45;;;;;;;46.38;5.72;;;13.60;99.90;;;;;;5028979;28;20049;-94
2020/12/22 00:25:13;;;;;;;51.72;5.30;;;13.60;99.90;;;;;;5029278;28;20067;-94
2020/12/22 00:27:44;;;;;;;41.10;5.88;;;13.60;99.90;;;;;;5033102;28;20049;-94
2020/12/22 00:30:13;;;;;;;60.17;6.55;;;13.60;99.90;;;;;;5038495;28;20053;-94
2020/12/22 00:32:41;;;;;;;50.95;6.63;;;13.60;99.90;;;;;;5035512;28;20045;-94
2020/12/22 00:35:10;;;;;;;45.00;5.05;;;13.60;99.90;;;;;;5036188;28;20494;-94
2020/12/22 00:37:40;;;;;;;41.40;4.97;;;13.60;99.90;;;;;;5038733;28;20502;-94
2020/12/22 00:40:08;;;;;;;40.47;4.53;;;13.60;99.90;;;;;;5039482;28;20292;-94
2020/12/22 00:42:38;;;;;;;33.55;3.72;;;13.60;99.90;;;;;;5051877;28;20132;-94
2020/12/22 00:45:06;;;;;;;27.10;3.38;;;13.50;99.90;;;;;;5052294;28;20060;-94
2020/12/22 00:47:36;;;;;;;38.50;4.72;;;13.60;99.90;;;;;;5036204;28;20520;-94
2020/12/22 00:50:07;;;;;;;36.80;4.25;;;13.60;99.90;;;;;;5033575;28;20057;-94
2020/12/22 00:52:35;;;;;;;33.37;5.07;;;13.60;99.90;;;;;;5025640;28;20045;-94
2020/12/22 00:55:05;;;;;;;49.03;5.65;;;13.60;99.90;;;;;;5038084;28;20580;-94
2020/12/22 00:57:33;;;;;;;60.88;6.80;;;13.60;99.90;;;;;;5037807;28;20072;-95
2020/12/22 01:00:11;;;;;;;61.88;7.43;;;13.60;99.90;;;;;;5026706;28;20455;-95
2020/12/22 01:02:44;;;;;;;72.18;7.03;;;13.60;99.90;;;;;;5035374;28;20080;-94
2020/12/22 01:05:15;;;;;;;71.18;7.15;;;13.60;99.90;;;;;;5037527;28;20136;-94
2020/12/22 01:07:44;;;;;;;65.25;7.70;;;13.60;99.90;;;;;;5036668;28;20167;-96
2020/12/22 01:10:12;;;;;;;;;;;13.60;99.90;;;;;;5038833;28;20958;-94
2020/12/22 01:12:43;;;;;;;69.97;7.10;;;13.60;99.90;;;;;;5036907;28;19925;-94
2020/12/22 01:15:12;;;;;;;61.63;7.20;;;13.60;99.90;;;;;;5026024;28;20417;-94
2020/12/22 01:17:40;;;;;;;56.78;6.35;;;13.60;99.90;;;;;;5051256;28;20037;-94
2020/12/22 01:20:08;;;;;;;52.72;6.20;;;13.60;99.90;;;;;;5035770;28;20055;-94
2020/12/22 01:22:38;;;;;;;62.05;7.13;;;13.60;99.90;;;;;;5038180;28;20124;-94
2020/12/22 01:25:06;;;;;;;65.03;7.20;;;13.60;99.90;;;;;;5032664;28;20061;-94
2020/12/22 01:27:33;;;;;;;52.15;6.53;;;13.60;99.90;;;;;;5036475;28;20057;-94
2020/12/22 01:30:03;;;;;;;59.20;7.93;;;13.60;99.90;;;;;;5034940;28;20171;-96
2020/12/22 01:32:31;;;;;;;70.80;8.02;;;13.60;99.90;;;;;;5034861;28;20045;-94
2020/12/22 01:34:59;;;;;;;65.30;7.35;;;13.60;99.90;;;;;;5041422;28;20041;-94
2020/12/22 01:37:27;;;;;;;48.40;6.22;;;13.60;99.90;;;;;;5016681;28;20474;-95
2020/12/22 01:39:55;;;;;;;65.20;7.13;;;13.60;99.90;;;;;;5017211;28;20376;-94
2020/12/22 01:42:24;;;;;;;64.95;7.72;;;13.60;99.90;;;;;;5016403;28;20049;-95
2020/12/22 01:44:52;;;;;;;64.68;6.75;;;13.60;99.90;;;;;;5016287;28;20057;-95
2020/12/22 01:47:22;;;;;;;63.28;6.68;;;13.60;99.90;;;;;;5016612;28;20103;-94
2020/12/22 01:49:50;;;;;;;60.85;6.70;;;13.60;99.90;;;;;;5027039;28;20425;-95
2020/12/22 01:52:18;;;;;;;62.08;7.30;;;13.50;99.90;;;;;;5017627;28;20112;-95
2020/12/22 01:54:47;;;;;;;52.13;6.75;;;13.60;99.90;;;;;;5017821;28;20136;-95
2020/12/22 01:57:19;;;;;;;51.50;6.50;;;13.60;99.90;;;;;;5005371;28;20072;-95
2020/12/22 01:59:48;;;;;;;56.10;7.22;;;13.50;99.90;;;;;;5013387;28;20467;-95
2020/12/22 02:02:16;;;;;;;44.83;6.30;;;13.60;99.90;;;;;;5016367;28;20489;-95
2020/12/22 02:04:43;;;;;;;36.40;5.38;;;13.60;99.90;;;;;;5033425;28;20068;-94
2020/12/22 02:07:15;;;;;;;;;;;13.60;99.90;;;;;;5016592;28;20072;-94
2020/12/22 02:09:46;;;;;;;34.92;4.35;;;13.50;99.90;;;;;;5007852;28;19925;-95
2020/12/22 02:12:19;;;;;;;27.08;3.63;;;13.50;99.90;;;;;;5018393;28;20049;-94
2020/12/22 02:14:48;;;;;;;26.88;3.80;;;13.50;99.90;;;;;;5016805;28;20045;-95
2020/12/22 02:17:16;;;;;;;24.27;3.92;;;13.50;99.90;;;;;;5009356;28;20476;-94
2020/12/22 02:19:45;;;;;;;18.20;3.47;;;13.50;99.90;;;;;;5016965;28;20045;-95
2020/12/22 02:22:14;;;;;;;16.02;2.70;;;13.50;99.90;;;;;;5016985;28;20067;-94
2020/12/22 02:24:42;;;;;;;19.20;2.40;;;13.50;99.90;;;;;;5001114;28;20057;-94
2020/12/22 02:27:10;;;;;;;15.93;2.93;;;13.50;99.90;;;;;;5015348;28;20056;-94
2020/12/22 02:29:40;;;;;;;13.70;2.10;;;13.50;99.90;;;;;;5015815;28;20304;-94
2020/12/22 02:32:08;;;;;;;12.30;2.13;;;13.50;99.90;;;;;;5014308;28;20052;-94
2020/12/22 02:34:38;;;;;;;16.05;1.80;;;13.60;99.90;;;;;;5016877;28;20104;-94
2020/12/22 02:37:08;;;;;;;9.10;1.73;;;13.50;99.90;;;;;;5034447;28;20552;-93
2020/12/22 02:39:36;;;;;;;9.55;1.58;;;13.50;99.90;;;;;;5037278;28;20056;-94
2020/12/22 02:42:04;;;;;;;15.83;2.47;;;13.50;99.90;;;;;;5036329;28;20410;-93
2020/12/22 02:44:32;;;;;;;13.13;2.45;;;13.60;99.90;;;;;;5027640;28;20391;-94
2020/12/22 02:47:01;;;;;;;11.88;2.45;;;13.60;99.90;;;;;;5033440;28;20103;-93
2020/12/22 02:49:43;;;;;;;15.07;2.72;;;13.60;99.90;;;;;;5026242;28;20487;-94
2020/12/22 02:52:11;;;;;;;16.38;2.42;;;13.60;99.90;;;;;;5037214;28;20049;-94
2020/12/22 02:54:39;;;;;;;19.48;2.95;;;13.60;99.90;;;;;;5036184;28;20044;-94
2020/12/22 02:57:07;;;;;;;36.67;3.88;;;13.60;99.90;;;;;;5035466;28;20049;-93
2020/12/22 02:59:35;;;;;;;33.00;4.18;;;13.50;99.90;;;;;;5034527;28;20053;-94
2020/12/22 03:02:04;;;;;;;40.42;4.47;;;13.50;99.90;;;;;;5033925;28;20166;-94
2020/12/22 03:04:31;;;;;;;37.40;5.43;;;13.60;99.90;;;;;;5022926;28;20532;-93
2020/12/22 03:07:02;;;;;;;41.92;5.32;;;13.60;99.90;;;;;;5037219;28;20075;-93
2020/12/22 03:09:32;;;;;;;32.08;4.90;;;13.60;99.90;;;;;;5035925;28;20060;-95
2020/12/22 03:12:02;;;;;;;42.10;5.63;;;13.60;99.90;;;;;;5033968;28;20061;-95
2020/12/22 03:14:29;;;;;;;57.92;6.13;;;13.60;99.90;;;;;;5035588;28;20045;-94
2020/12/22 03:16:58;;;;;;;55.03;6.28;;;13.60;99.90;;;;;;5047208;28;20048;-94
2020/12/22 03:19:26;;;;;;;70.32;6.38;;;13.60;99.90;;;;;;5036293;28;20056;-94
2020/12/22 03:21:58;;;;;;;41.63;5.43;;;13.60;99.90;;;;;;5035918;28;20045;-92
2020/12/22 03:24:26;;;;;;;28.67;4.30;;;13.60;99.90;;;;;;5034760;28;20059;-94
2020/12/22 03:26:54;;;;;;;;;;;13.60;99.90;;;;;;5034237;28;20344;-94
2020/12/22 03:29:25;;;;;;;19.83;2.45;;;13.60;99.90;;;;;;5052690;28;20265;-94
2020/12/22 03:31:53;;;;;;;18.67;2.50;;;13.60;99.90;;;;;;5034809;28;20045;-93
2020/12/22 03:34:24;;;;;;;18.03;3.10;;;13.60;99.90;;;;;;5035868;28;20056;-94
2020/12/22 03:36:51;;;;;;;21.80;2.75;;;13.60;99.90;;;;;;5038875;28;20334;-93
2020/12/22 03:39:20;;;;;;;16.88;3.15;;;13.60;99.90;;;;;;5035911;28;20057;-93
2020/12/22 03:41:48;;;;;;;18.20;3.25;;;13.60;99.90;;;;;;5035287;28;20053;-93
2020/12/22 03:44:17;;;;;;;22.38;3.08;;;13.60;99.90;;;;;;5037471;28;20095;-93
2020/12/22 03:46:50;;;;;;;17.92;3.17;;;13.60;99.90;;;;;;5049879;28;20143;-93
2020/12/22 03:49:20;;;;;;;20.92;2.90;;;13.60;99.90;;;;;;5038130;28;20053;-93
2020/12/22 03:51:52;;;;;;;13.85;2.67;;;13.60;99.90;;;;;;5039187;28;20080;-93
2020/12/22 03:54:22;;;;;;;23.45;3.55;;;13.60;99.90;;;;;;5039688;28;20057;-93
2020/12/22 03:56:51;;;;;;;39.92;5.20;;;13.60;99.90;;;;;;5035492;28;20069;-93
2020/12/22 03:59:19;;;;;;;49.08;6.13;;;13.60;99.90;;;;;;5043215;28;20045;-93
2020/12/22 04:01:51;;;;;;;58.90;6.28;;;13.60;99.90;;;;;;5032256;28;20099;-94
2020/12/22 04:04:24;;;;;;;72.28;6.93;;;13.60;99.90;;;;;;5039779;28;20072;-94
2020/12/22 04:06:52;;;;;;;62.42;7.93;;;13.60;99.90;;;;;;5039952;28;20064;-94
2020/12/22 04:09:22;;;;;;;69.85;7.95;;;13.60;99.90;;;;;;5038696;28;20049;-94
2020/12/22 04:11:51;;;;;;;46.78;5.97;;;13.60;99.90;;;;;;5026962;28;20042;-94
2020/12/22 04:14:20;;;;;;;38.78;5.72;;;13.60;99.90;;;;;;5026828;28;20450;-93
2020/12/22 04:16:49;;;;;;;40.80;6.50;;;13.60;99.90;;;;;;5028568;28;20129;-94
2020/12/22 04:19:17;;;;;;;27.15;4.13;;;13.60;99.90;;;;;;5038776;28;20052;-93
2020/12/22 04:21:47;;;;;;;31.73;5.10;;;13.60;99.90;;;;;;5039003;28;20064;-94
2020/12/22 04:24:15;;;;;;;32.60;6.10;;;13.60;99.90;;;;;;5027629;28;20111;-93
2020/12/22 04:26:44;;;;;;;39.55;6.35;;;13.60;99.90;;;;;;5047812;28;20099;-94
2020/12/22 04:29:14;;;;;;;29.80;5.65;;;13.60;99.90;;;;;;5046893;28;20059;-94
2020/12/22 04:31:42;;;;;;;20.10;5.88;;;13.60;99.90;;;;;;5037409;28;20046;-93
2020/12/22 04:34:10;;;;;;;25.53;5.80;;;13.50;99.90;;;;;;5038579;28;20060;-93
2020/12/22 04:36:38;;;;;;;45.60;7.28;;;13.60;99.90;;;;;;5035641;28;20306;-94
2020/12/22 04:39:07;;;;;;;62.85;9.13;;;13.60;99.90;;;;;;5016458;28;20060;-94
2020/12/22 04:41:37;;;;;;;77.15;8.38;;;13.60;99.90;;;;;;5019790;28;20056;-94
2020/12/22 04:44:05;;;;;;;126.03;9.35;;;13.60;99.90;;;;;;5019138;28;20379;-95
2020/12/22 04:46:34;;;;;;;19.85;4.15;;;13.60;99.90;;;;;;5029557;28;20052;-94
2020/12/22 04:49:03;;;;;;;26.30;4.90;;;13.60;99.90;;;;;;5019011;28;20104;-94
2020/12/22 04:51:34;;;;;;;31.27;4.25;;;13.60;99.90;;;;;;5003342;28;20092;-95
2020/12/22 04:54:05;;;;;;;40.55;6.32;;;13.60;99.90;;;;;;5018017;28;20061;-96
2020/12/22 04:56:36;;;;;;;48.90;5.97;;;13.60;99.90;;;;;;5018036;28;20045;-96
2020/12/22 04:59:05;;;;;;;51.72;6.63;;;13.60;99.90;;;;;;5013915;28;20042;-96
2020/12/22 05:01:34;;;;;;;75.60;7.18;;;13.60;99.90;;;;;;5010839;28;20049;-95
2020/12/22 05:04:02;;;;;;;62.60;6.68;;;13.60;99.90;;;;;;5005358;28;20055;-95
2020/12/22 05:06:32;;;;;;;36.70;5.80;;;13.60;99.90;;;;;;5022100;28;20053;-93
2020/12/22 05:09:00;;;;;;;34.97;5.43;;;13.60;99.90;;;;;;5018413;28;20053;-94
2020/12/22 05:11:28;;;;;;;29.48;4.45;;;13.60;99.90;;;;;;5017060;28;20103;-93
2020/12/22 05:13:57;;;;;;;33.35;4.38;;;13.60;99.90;;;;;;5030893;28;20071;-94
2020/12/22 05:16:29;;;;;;;36.25;4.95;;;13.60;99.90;;;;;;5014395;28;20045;-93
2020/12/22 05:19:01;;;;;;;142.30;7.45;;;13.60;99.90;;;;;;5034062;28;20463;-94
2020/12/22 05:21:36;;;;;;;180.55;8.82;;;13.60;99.90;;;;;;5018052;28;20059;-94
2020/12/22 05:24:04;;;;;;;132.18;7.75;;;13.60;99.90;;;;;;5018345;28;20535;-94
2020/12/22 05:26:42;;;;;;;86.57;6.40;;;13.60;99.90;;;;;;5018779;28;20472;-94
2020/12/22 05:29:16;;;;;;;48.83;4.78;;;13.60;99.90;;;;;;5024870;28;20053;-94
2020/12/22 05:31:52;;;;;;;24.73;4.07;;;13.60;99.90;;;;;;5016761;28;20049;-94
2020/12/22 05:34:27;;;;;;;40.25;4.90;;;13.60;99.90;;;;;;5018709;28;20129;-93
2020/12/22 05:36:58;;;;;;;71.93;5.03;;;13.50;99.90;;;;;;5051086;28;20131;-94
2020/12/22 05:39:26;;;;;;;89.95;5.85;;;13.50;99.90;;;;;;5035743;28;20111;-94
2020/12/22 05:41:55;;;;;;;167.50;7.37;;;13.60;99.90;;;;;;5036261;28;20080;-93
2020/12/22 05:44:28;;;;;;;135.52;6.93;;;13.60;99.90;;;;;;5035778;28;20560;-94
2020/12/22 05:46:59;;;;;;;114.95;5.97;;;13.60;99.90;;;;;;5033682;28;20049;-94
2020/12/22 05:49:31;;;;;;;170.15;6.93;;;13.60;99.90;;;;;;5024177;28;20044;-94
2020/12/22 05:52:07;;;;;;;139.25;5.85;;;13.60;99.90;;;;;;5037495;28;20124;-94
2020/12/22 05:54:44;;;;;;;122.75;6.38;;;13.50;99.90;;;;;;5038651;28;20106;-94
2020/12/22 05:57:14;;;;;;;101.20;5.28;;;13.60;99.90;;;;;;5037481;28;20675;-94
2020/12/22 05:59:43;;;;;;;133.38;5.82;;;13.60;99.90;;;;;;5027133;28;20075;-94
2020/12/22 06:02:23;;;;;;;131.80;5.90;;;13.50;99.90;;;;;;5033792;28;20045;-92
2020/12/22 06:04:57;;;;;;;149.98;6.30;;;13.60;99.90;;;;;;5040602;28;20501;-93
2020/12/22 06:07:25;;;;;;;77.55;4.55;;;13.60;99.90;;;;;;5036971;28;20058;-93
2020/12/22 06:09:58;;;;;;;57.92;4.65;;;13.60;99.90;;;;;;5037154;28;20084;-93
2020/12/22 06:12:26;;;;;;;52.45;4.53;;;13.60;99.90;;;;;;5036354;28;20049;-92
2020/12/22 06:14:54;;;;;;;24.17;2.88;;;13.60;99.90;;;;;;5035342;28;20057;-92
2020/12/22 06:17:22;;;;;;;18.73;2.50;;;13.60;99.90;;;;;;5040015;28;20105;-90
2020/12/22 06:19:51;;;;;;;22.02;2.65;;;13.60;99.90;;;;;;5036921;28;20389;-92
2020/12/22 06:22:22;;;;;;;17.75;2.65;;;13.60;99.90;;;;;;5035596;28;20048;-91
2020/12/22 06:24:55;;;;;;;15.05;2.55;;;13.60;99.90;;;;;;5038267;28;20481;-92
2020/12/22 06:27:33;;;;;;;11.50;2.55;;;13.60;99.90;;;;;;5039657;28;20055;-92
2020/12/22 06:30:01;;;;;;;21.08;2.67;;;13.60;99.90;;;;;;5040402;28;20059;-92
2020/12/22 06:32:31;;;;;;;20.13;2.95;;;13.60;99.90;;;;;;5037505;28;20041;-92
2020/12/22 06:35:29;;;;;;;18.77;3.10;;;13.50;99.90;;;;;;5035682;28;20052;-91
2020/12/22 06:37:58;;;;;;;23.08;3.30;;;13.60;99.90;;;;;;5027100;28;20041;-91
2020/12/22 06:40:44;;;;;;;;;;;13.60;99.90;;;;;;5018188;28;20084;-92
2020/12/22 06:43:34;;;;;;;180.52;7.53;;;13.60;99.90;;;;;;5018337;28;19928;-94
2020/12/22 06:46:02;;;;;;;259.23;8.85;;;13.50;99.90;;;;;;5017986;28;20057;-92
2020/12/22 06:48:43;;;;;;;278.90;9.27;;;13.50;99.90;;;;;;5027955;28;20185;-92
2020/12/22 06:51:27;;;;;;;265.38;9.00;;;13.50;99.90;;;;;;5017216;28;20088;-92
2020/12/22 06:53:55;;;;;;;330.35;10.20;;;13.50;99.90;;;;;;5018251;28;20084;-91
2020/12/22 06:56:52;;;;;;;331.90;11.02;;;13.50;99.90;;;;;;5011733;28;20077;-92
2020/12/22 06:59:40;;;;;;;207.52;8.48;;;13.50;99.90;;;;;;5009218;28;20050;-92
2020/12/22 07:02:33;;;;;;;114.55;6.28;;;13.60;99.90;;;;;;5015540;28;20058;-94
2020/12/22 07:05:07;;;;;;;56.20;5.65;;;13.50;99.90;;;;;;5011044;28;20046;-93
2020/12/22 07:07:58;;;;;;;62.60;7.10;;;13.60;99.90;;;;;;5004289;28;20060;-96
2020/12/22 07:10:29;;;;;;;54.75;5.93;;;13.50;99.90;;;;;;5020958;28;20130;-95
2020/12/22 07:12:59;;;;;;;29.17;5.85;;;13.50;99.90;;;;;;5035487;28;20136;-93
2020/12/22 07:15:34;;;;;;;12.68;3.78;;;13.50;99.90;;;;;;5022120;28;20109;-94
2020/12/22 07:18:14;;;;;;;11.80;2.58;;;13.50;99.90;;;;;;5020673;28;20057;-93
2020/12/22 07:20:43;;;;;;;12.88;2.72;;;13.60;99.90;;;;;;5019842;28;20589;-93
2020/12/22 07:23:16;;;;;;;11.40;2.58;;;13.50;99.90;;;;;;5022457;28;20053;-95
2020/12/22 07:25:46;;;;;;;21.20;3.05;;;13.50;99.90;;;;;;5018978;28;20071;-95
2020/12/22 07:28:17;;;;;;;26.38;4.78;;;13.60;99.90;;;;;;5031824;28;20143;-95
2020/12/22 07:30:46;;;;;;;26.38;4.47;;;13.60;99.90;;;;;;5023673;28;20136;-93
2020/12/22 07:33:13;;;;;;;25.30;4.43;;;13.50;99.90;;;;;;5020266;28;20049;-93
2020/12/22 07:35:43;;;;;;;31.73;5.03;;;13.60;99.90;;;;;;5022233;28;20057;-92
2020/12/22 07:38:11;;;;;;;21.92;3.78;;;13.50;99.90;;;;;;5025768;28;20077;-92
2020/12/22 07:40:42;;;;;;;32.90;4.93;;;13.50;99.90;;;;;;5030476;28;20483;-93
2020/12/22 07:43:14;;;;;;;24.58;4.20;;;13.50;99.90;;;;;;5004866;28;20057;-92
2020/12/22 07:45:51;;;;;;;32.80;4.22;;;13.50;99.90;;;;;;5021287;28;20042;-92
2020/12/22 07:48:20;;;;;;;26.00;4.60;;;13.50;99.90;;;;;;5020516;28;20502;-92
2020/12/22 07:50:54;;;;;;;27.38;4.00;;;13.50;99.90;;;;;;5015227;28;20050;-93
2020/12/22 07:53:23;;;;;;;22.50;3.75;;;13.50;99.90;;;;;;5014041;28;20128;-94
2020/12/22 07:56:04;;;;;;;20.75;3.38;;;13.50;99.90;;;;;;5016457;28;20080;-93
2020/12/22 07:58:32;;;;;;;23.17;3.88;;;13.50;99.90;;;;;;5017252;28;20631;-92
2020/12/22 08:01:01;;;;;;;30.30;4.07;;;13.50;99.90;;;;;;5027054;28;20064;-93
2020/12/22 08:03:29;;;;;;;23.83;4.20;;;13.50;99.90;;;;;;5035675;28;20072;-93
2020/12/22 08:06:01;;;;;;;29.13;4.67;;;13.50;99.90;;;;;;5017679;28;20067;-93
2020/12/22 08:08:31;;;;;;;22.98;3.70;;;13.60;99.90;;;;;;5017070;28;20332;-93
2020/12/22 08:10:59;;;;;;;23.27;4.60;;;13.60;99.90;;;;;;5018185;28;20054;-93
2020/12/22 08:13:32;;;;;;;32.97;5.07;;;13.50;99.90;;;;;;5030780;28;20046;-93
2020/12/22 08:16:00;;;;;;;28.65;4.82;;;13.60;99.90;;;;;;5018998;28;20049;-93
2020/12/22 08:18:31;;;;;;;28.42;5.40;;;13.60;99.90;;;;;;5019721;28;20490;-94
2020/12/22 08:21:00;;;;;;;27.30;4.82;;;13.60;99.90;;;;;;5018867;28;20103;-93
2020/12/22 08:23:31;;;;;;;28.15;4.80;;;13.60;99.90;;;;;;5018897;28;20107;-93
2020/12/22 08:25:59;;;;;;;31.85;4.40;;;13.60;99.90;;;;;;5017473;28;20104;-93
2020/12/22 08:28:27;;;;;;;32.83;4.13;;;13.50;99.90;;;;;;5017485;28;20056;-93
2020/12/22 08:30:55;;;;;;;25.17;4.10;;;13.50;99.90;;;;;;5036011;28;20646;-94
2020/12/22 08:33:23;;;;;;;28.55;3.97;;;13.50;99.90;;;;;;5005188;28;20062;-94
2020/12/22 08:35:51;;;;;;;29.48;4.43;;;13.50;99.90;;;;;;5018692;28;20050;-93
2020/12/22 08:38:23;;;;;;;30.83;4.03;;;13.50;99.90;;;;;;5038108;28;20460;-93
2020/12/22 08:40:53;;;;;;;38.70;4.72;;;13.50;99.90;;;;;;5037468;28;20053;-93
2020/12/22 08:43:23;;;;;;;44.42;5.18;;;13.50;99.90;;;;;;5037293;28;20041;-94
2020/12/22 08:45:52;;;;;;;51.10;5.60;;;13.50;99.90;;;;;;5037735;28;20308;-94
2020/12/22 08:48:20;;;;;;;;;;;13.50;99.90;;;;;;5023138;28;20049;-90
2020/12/22 08:50:52;;;;;;;96.28;5.18;;;13.50;99.90;;;;;;5033841;28;19920;-94
2020/12/22 08:53:50;;;;;;;44.65;3.58;;;13.50;99.90;;;;;;5039067;28;20037;-94
2020/12/22 08:56:21;;;;;;;42.42;3.25;;;13.50;99.90;;;;;;5026803;28;20047;-94
2020/12/22 08:59:00;;;;;;;19.20;2.60;;;13.50;99.90;;;;;;5036525;28;20077;-93
2020/12/22 09:01:30;;;;;;;16.77;2.80;;;13.50;99.90;;;;;;5029987;28;20041;-93
2020/12/22 09:04:01;;;;;;;13.57;2.30;;;13.50;99.90;;;;;;5030511;28;20053;-94
2020/12/22 09:06:38;;;;;;;13.63;2.85;;;13.50;99.90;;;;;;5032813;28;20083;-94
2020/12/22 09:09:10;;;;;;;19.90;2.25;;;13.60;99.90;;;;;;5034406;28;20501;-93
2020/12/22 09:11:38;;;;;;;;;;;13.60;99.90;;;;;;5034878;28;20478;-94
2020/12/22 09:14:07;;;;;;;16.47;2.23;;;13.50;99.90;;;;;;5034845;28;20402;-93
2020/12/22 09:16:49;;;;;;;18.00;2.53;;;13.50;99.90;;;;;;5034951;28;20126;-93
2020/12/22 09:19:39;;;;;;;17.85;3.05;;;13.50;99.90;;;;;;5031164;28;20458;-93
2020/12/22 09:22:09;;;;;;;21.80;2.60;;;13.50;99.90;;;;;;5034086;28;20053;-94
2020/12/22 09:24:37;;;;;;;28.13;2.50;;;13.50;99.90;;;;;;5030829;28;20053;-93
2020/12/22 09:27:12;;;;;;;24.10;3.03;;;13.50;99.90;;;;;;5030649;28;20049;-93
2020/12/22 09:29:42;;;;;;;24.00;2.95;;;13.50;99.90;;;;;;5034282;28;20553;-93
2020/12/22 09:32:10;;;;;;;;;;;13.50;99.90;;;;;;5031532;28;20045;-94
2020/12/22 09:34:38;;;;;;;;;;;13.50;99.90;;;;;;5032759;28;19924;-95
2020/12/22 09:37:09;;;;;;;23.20;2.85;;;13.50;99.90;;;;;;5034313;28;19924;-94
2020/12/22 09:39:37;;;;;;;;;;;13.50;99.90;;;;;;5033695;28;20045;-94
2020/12/22 09:42:06;;;;;;;17.00;2.38;;;13.50;99.90;;;;;;5026920;28;20320;-94
2020/12/22 09:44:35;;;;;;;18.38;2.70;;;13.50;99.90;;;;;;5033666;28;20523;-93
2020/12/22 09:47:04;;;;;;;16.65;2.85;;;13.50;99.90;;;;;;5026600;28;20502;-94
2020/12/22 09:49:34;;;;;;;22.05;3.20;;;13.50;99.90;;;;;;5033799;28;20471;-93
2020/12/22 09:52:03;;;;;;;22.33;2.88;;;13.50;99.90;;;;;;5033367;28;20144;-93
2020/12/22 09:54:34;;;;;;;18.83;3.20;;;13.50;99.90;;;;;;5031682;28;20057;-94
2020/12/22 09:57:04;;;;;;;21.88;3.75;;;13.50;99.90;;;;;;5033957;28;20048;-94
2020/12/22 09:59:33;;;;;;;16.50;3.45;;;13.60;99.90;;;;;;5043925;28;20056;-94
2020/12/22 10:02:02;;;;;;;28.70;3.85;;;13.60;99.90;;;;;;5027867;28;20049;-93
2020/12/22 10:04:33;;;;;;;26.30;3.90;;;13.50;99.90;;;;;;5032663;28;20161;-93
2020/12/22 10:07:03;;;;;;;24.25;3.30;;;13.60;99.90;;;;;;5026053;28;20045;-93
2020/12/22 10:09:31;;;;;;;27.15;3.88;;;13.60;99.90;;;;;;5032524;28;20048;-93
2020/12/22 10:12:01;;;;;;;31.50;4.28;;;13.70;99.90;;;;;;5032685;28;20476;-94
2020/12/22 10:14:29;;;;;;;25.98;3.97;;;13.60;99.90;;;;;;5029818;28;20471;-94
2020/12/22 10:16:58;;;;;;;38.40;5.35;;;13.70;99.90;;;;;;5032737;28;20128;-93
2020/12/22 10:19:27;;;;;;;35.22;5.68;;;13.70;99.90;;;;;;5035513;28;20386;-94
2020/12/22 10:21:55;;;;;;;37.13;5.30;;;13.70;99.90;;;;;;5031695;28;20060;-94
2020/12/22 10:24:35;;;;;;;49.55;5.85;;;13.70;99.90;;;;;;5032110;28;20052;-95
2020/12/22 10:27:05;;;;;;;39.15;5.47;;;13.70;99.90;;;;;;5028089;28;20136;-94
2020/12/22 10:29:39;;;;;;;39.80;5.35;;;13.70;99.90;;;;;;5031385;28;20045;-94
2020/12/22 10:32:07;;;;;;;40.40;5.83;;;13.70;99.90;;;;;;5025107;28;20068;-94
2020/12/22 10:34:36;;;;;;;44.33;6.43;;;13.60;99.90;;;;;;5023044;28;20455;-93
2020/12/22 10:37:03;;;;;;;39.50;4.70;;;13.60;99.90;;;;;;4928670;28;3084108;-93
2020/12/22 10:39:31;;;;;;;32.83;4.15;;;13.60;99.90;;;;;;5037436;28;20326;-94
2020/12/22 10:42:00;;;;;;;30.98;4.85;;;13.60;99.90;;;;;;5032782;28;20056;-93
2020/12/22 10:44:28;;;;;;;42.92;5.30;;;13.60;99.90;;;;;;5036072;28;20179;-94
2020/12/22 10:47:01;;;;;;;28.58;3.50;;;13.60;99.90;;;;;;5030885;28;20050;-93
2020/12/22 10:49:29;;;;;;;28.48;3.55;;;13.50;99.90;;;;;;5034627;28;20467;-94
2020/12/22 10:51:57;;;;;;;23.80;2.88;;;13.50;99.90;;;;;;5032636;28;20064;-94
2020/12/22 10:54:25;;;;;;;21.55;2.90;;;13.40;99.90;;;;;;5039868;28;20124;-93
2020/12/22 10:56:53;;;;;;;21.35;2.35;;;13.40;99.90;;;;;;5042373;28;20045;-93
2020/12/22 10:59:22;;;;;;;17.27;2.20;;;13.40;99.90;;;;;;5040594;28;20390;-94
2020/12/22 11:01:51;;;;;;;18.00;2.28;;;13.40;99.90;;;;;;5034552;28;20044;-94
2020/12/22 11:04:21;;;;;;;;;;;13.40;99.90;;;;;;5040536;28;20051;-94
2020/12/22 11:09:22;;;;;;;16.83;4.07;;;13.40;99.90;;;;;;5044246;28;20053;-93
2020/12/22 11:11:53;;;;;;;16.08;2.72;;;13.40;99.90;;;;;;5031728;28;20048;-93
2020/12/22 11:14:25;;;;;;;22.63;3.17;;;13.40;99.90;;;;;;5054298;28;20121;-94
2020/12/22 11:16:53;;;;;;;14.40;2.45;;;13.40;99.90;;;;;;5037134;28;20045;-94
2020/12/22 11:19:22;;;;;;;20.80;2.75;;;13.40;99.90;;;;;;5053801;28;20479;-93
2020/12/22 11:21:49;;;;;;;13.07;2.10;;;13.40;99.90;;;;;;5037886;28;20053;-94
2020/12/22 11:24:17;;;;;;;14.43;2.10;;;13.40;99.90;;;;;;5038335;28;20063;-94
2020/12/22 11:26:46;;;;;;;16.63;2.50;;;13.40;99.90;;;;;;5038547;28;20466;-93
2020/12/22 11:29:14;;;;;;;16.08;2.53;;;13.40;99.90;;;;;;5038785;28;20056;-95
2020/12/22 11:31:47;;;;;;;14.48;1.90;;;13.40;99.90;;;;;;5039361;28;20075;-94
2020/12/22 11:34:19;;;;;;;9.98;1.50;;;13.40;99.90;;;;;;5039220;28;20068;-94
2020/12/22 11:36:53;;;;;;;6.53;1.20;;;13.40;99.90;;;;;;5023406;28;20446;-94
2020/12/22 11:39:22;;;;;;;6.35;1.40;;;13.40;99.90;;;;;;5009906;28;20064;-94
2020/12/22 11:41:49;;;;;;;8.05;1.50;;;13.40;99.90;;;;;;5000401;28;20530;-93
2020/12/22 11:44:17;;;;;;;6.60;1.30;;;13.40;99.90;;;;;;5012316;28;20109;-92
2020/12/22 11:46:45;;;;;;;21.30;12.55;;;13.40;99.90;;;;;;5035390;28;20055;-92
2020/12/22 11:49:14;;;;;;;;;;;13.40;99.90;;;;;;5021534;28;20104;-94
2020/12/22 11:51:54;;;;;;;17.33;9.90;;;13.40;99.90;;;;;;5019889;28;19936;-92
2020/12/22 11:54:22;;;;;;;12.55;5.57;;;13.30;99.90;;;;;;5018525;28;20045;-91
2020/12/22 11:56:51;;;;;;;7.17;1.80;;;13.30;99.90;;;;;;5018204;28;20127;-93
2020/12/22 11:59:20;;;;;;;9.40;2.50;;;13.30;99.90;;;;;;5021215;28;20318;-93
2020/12/22 12:01:48;;;;;;;8.15;3.38;;;13.30;99.90;;;;;;5014843;28;20041;-93
2020/12/22 12:04:15;;;;;;;41.17;34.47;;;13.30;99.90;;;;;;5021949;28;20053;-95
2020/12/22 12:06:48;;;;;;;22.50;20.23;;;13.40;99.90;;;;;;5021098;28;20056;-93
2020/12/22 12:09:16;;;;;;;16.40;13.40;;;13.40;99.90;;;;;;5017754;28;20312;-95
2020/12/22 12:11:51;;;;;;;6.50;2.00;;;13.40;99.90;;;;;;5018597;28;20095;-93
2020/12/22 12:14:21;;;;;;;3.72;1.20;;;13.40;99.90;;;;;;5016660;28;20057;-93
2020/12/22 12:16:49;;;;;;;;;;;13.40;99.90;;;;;;5018338;28;20041;-93
2020/12/22 12:19:21;;;;;;;3.90;1.25;;;13.40;99.90;;;;;;5016059;28;20264;-94
2020/12/22 12:21:48;;;;;;;3.78;0.90;;;13.40;99.90;;;;;;5013113;28;20480;-93
2020/12/22 12:24:18;;;;;;;3.33;1.30;;;13.30;99.90;;;;;;5016599;28;20136;-93
2020/12/22 12:26:46;;;;;;;6.32;4.50;;;13.30;99.90;;;;;;5012434;28;20041;-92
2020/12/22 12:29:16;;;;;;;3.83;1.00;;;13.40;99.90;;;;;;5014390;28;20050;-93
2020/12/22 12:31:49;;;;;;;3.75;1.27;;;13.40;99.90;;;;;;5012215;28;20093;-93
2020/12/22 12:34:17;;;;;;;1.55;1.30;;;13.40;99.90;;;;;;5031660;28;20461;-93
2020/12/22 12:36:46;;;;;;;2.42;1.38;;;13.40;99.90;;;;;;5025400;28;20092;-93
2020/12/22 12:39:16;;;;;;;1.80;0.70;;;13.40;99.90;;;;;;5048497;28;20132;-93
2020/12/22 12:41:49;;;;;;;6.65;2.25;;;13.40;99.90;;;;;;5030229;28;20052;-94
2020/12/22 12:44:17;;;;;;;5.55;2.42;;;13.40;99.90;;;;;;5027811;28;20539;-94
2020/12/22 12:46:45;;;;;;;7.60;2.83;;;13.40;99.90;;;;;;5031988;28;20055;-94
2020/12/22 12:49:16;;;;;;;8.48;3.00;;;13.40;99.90;;;;;;5029810;28;20057;-94
2020/12/22 12:51:45;;;;;;;9.23;2.35;;;13.30;99.90;;;;;;5029072;28;20380;-95
2020/12/22 12:54:12;;;;;;;;;;;13.40;99.90;;;;;;5033735;28;20076;-95
2020/12/22 12:56:40;;;;;;;14.02;2.38;;;13.50;99.90;;;;;;5033763;28;19920;-95
2020/12/22 12:59:09;;;;;;;17.33;3.92;;;13.50;99.90;;;;;;5027868;28;20044;-94